createdAt,value
2023-05-07T00:01:43.968Z,16.26
2023-05-07T00:04:12.290Z,16.66
2023-05-07T00:06:40.872Z,16.45
2023-05-07T00:09:09.280Z,16.18
2023-05-07T00:11:37.499Z,15.13
2023-05-07T00:14:05.788Z,15.45
2023-05-07T00:16:33.945Z,15.97
2023-05-07T00:19:03.564Z,16.11
2023-05-07T00:21:31.677Z,16.04
2023-05-07T00:23:59.810Z,15.85
2023-05-07T00:26:27.937Z,15.87
2023-05-07T00:28:56.054Z,15.83
2023-05-07T00:31:24.250Z,15.87
2023-05-07T00:33:52.384Z,15.87
2023-05-07T00:36:21.965Z,15.75
2023-05-07T00:38:50.144Z,15.81
2023-05-07T00:41:18.277Z,15.67
2023-05-07T00:43:46.936Z,15.68
2023-05-07T00:46:16.987Z,15.63
2023-05-07T00:48:45.408Z,15.43
2023-05-07T00:51:13.873Z,15.26
2023-05-07T00:53:43.676Z,15.20
2023-05-07T00:56:12.427Z,15.16
2023-05-07T00:58:40.956Z,15.19
2023-05-07T01:01:09.271Z,15.15
2023-05-07T01:03:37.522Z,14.98
2023-05-07T01:06:09.000Z,14.97
2023-05-07T01:08:40.840Z,14.87
2023-05-07T01:11:11.215Z,14.85
2023-05-07T01:13:40.723Z,14.78
2023-05-07T01:16:10.884Z,14.91
2023-05-07T01:18:39.182Z,14.74
2023-05-07T01:21:07.874Z,14.93
2023-05-07T01:23:38.251Z,15.00
2023-05-07T01:26:06.502Z,15.06
2023-05-07T01:28:34.623Z,14.92
2023-05-07T01:31:05.485Z,15.09
2023-05-07T01:33:36.831Z,15.03
2023-05-07T01:36:07.790Z,15.01
2023-05-07T01:38:38.613Z,14.80
2023-05-07T01:41:07.199Z,15.02
2023-05-07T01:43:35.849Z,14.76
2023-05-07T01:46:06.095Z,14.82
2023-05-07T01:48:35.172Z,15.06
2023-05-07T01:51:04.069Z,15.03
2023-05-07T01:53:39.777Z,14.71
2023-05-07T01:56:08.697Z,14.69
2023-05-07T01:58:36.881Z,14.93
2023-05-07T02:01:05.086Z,14.91
2023-05-07T02:03:33.328Z,14.76
2023-05-07T02:06:01.514Z,15.00
2023-05-07T02:08:29.705Z,15.00
2023-05-07T02:10:59.246Z,15.06
2023-05-07T02:13:29.386Z,15.18
2023-05-07T02:15:57.521Z,15.08
2023-05-07T02:18:25.714Z,15.16
2023-05-07T02:20:53.880Z,15.00
2023-05-07T02:23:22.038Z,14.76
2023-05-07T02:25:50.219Z,14.68
2023-05-07T02:28:19.794Z,14.63
2023-05-07T02:30:47.945Z,14.57
2023-05-07T02:33:16.120Z,14.13
2023-05-07T02:35:44.261Z,14.48
2023-05-07T02:38:12.496Z,14.44
2023-05-07T02:40:41.226Z,14.51
2023-05-07T02:43:09.582Z,14.59
2023-05-07T02:45:39.681Z,14.44
2023-05-07T02:48:08.315Z,14.36
2023-05-07T02:50:36.588Z,14.46
2023-05-07T02:53:04.746Z,14.47
2023-05-07T02:55:32.934Z,14.35
2023-05-07T02:58:01.093Z,14.32
2023-05-07T03:00:29.281Z,14.06
2023-05-07T03:02:58.867Z,14.40
2023-05-07T03:05:27.087Z,14.31
2023-05-07T03:07:55.231Z,14.37
2023-05-07T03:10:23.370Z,14.41
2023-05-07T03:12:51.551Z,14.36
2023-05-07T03:15:20.075Z,14.31
2023-05-07T03:17:48.242Z,14.23
2023-05-07T03:20:18.201Z,14.35
2023-05-07T03:22:46.373Z,14.30
2023-05-07T03:25:15.235Z,14.25
2023-05-07T03:27:44.058Z,14.15
2023-05-07T03:30:13.804Z,14.26
2023-05-07T03:32:42.120Z,14.13
2023-05-07T03:35:10.978Z,14.20
2023-05-07T03:37:40.931Z,13.85
2023-05-07T03:40:11.771Z,14.06
2023-05-07T03:42:40.349Z,14.13
2023-05-07T03:45:09.970Z,14.10
2023-05-07T03:47:38.170Z,14.06
2023-05-07T03:50:07.145Z,14.05
2023-05-07T03:52:35.340Z,14.10
2023-05-07T03:55:05.126Z,14.11
2023-05-07T03:57:33.255Z,13.89
2023-05-07T04:00:01.431Z,14.10
2023-05-07T04:02:29.626Z,14.01
2023-05-07T04:04:58.220Z,14.07
2023-05-07T04:07:26.403Z,14.07
2023-05-07T04:09:54.513Z,14.24
2023-05-07T04:12:24.068Z,14.15
2023-05-07T04:14:52.207Z,14.16
2023-05-07T04:17:20.320Z,14.25
2023-05-07T04:19:48.421Z,14.16
2023-05-07T04:22:16.872Z,14.43
2023-05-07T04:24:45.020Z,14.23
2023-05-07T04:27:13.150Z,14.42
2023-05-07T04:29:43.476Z,14.31
2023-05-07T04:32:12.240Z,14.25
2023-05-07T04:34:40.494Z,14.18
2023-05-07T04:37:08.567Z,14.31
2023-05-07T04:39:37.413Z,14.37
2023-05-07T04:42:05.572Z,14.57
2023-05-07T04:44:33.866Z,14.75
2023-05-07T04:47:03.384Z,14.70
2023-05-07T04:49:31.496Z,14.55
2023-05-07T04:51:59.637Z,14.53
2023-05-07T04:54:27.813Z,14.49
2023-05-07T04:56:55.903Z,14.78
2023-05-07T04:59:24.134Z,14.64
2023-05-07T05:01:52.474Z,14.96
2023-05-07T05:04:22.158Z,14.17
2023-05-07T05:06:50.270Z,15.16
2023-05-07T05:09:18.625Z,15.43
2023-05-07T05:11:47.332Z,15.62
2023-05-07T05:14:15.528Z,15.70
2023-05-07T05:16:43.770Z,15.77
2023-05-07T05:19:12.049Z,15.75
2023-05-07T05:21:41.633Z,15.71
2023-05-07T05:24:10.041Z,15.92
2023-05-07T05:26:38.183Z,15.97
2023-05-07T05:29:06.897Z,16.08
2023-05-07T05:31:35.109Z,16.19
2023-05-07T05:34:04.892Z,16.17
2023-05-07T05:36:33.080Z,16.13
2023-05-07T05:39:02.637Z,16.24
2023-05-07T05:41:30.832Z,16.26
2023-05-07T05:43:58.955Z,16.28
2023-05-07T05:46:27.198Z,16.24
2023-05-07T05:48:55.420Z,16.44
2023-05-07T05:51:24.341Z,16.47
2023-05-07T05:53:52.514Z,16.54
2023-05-07T05:56:22.310Z,16.70
2023-05-07T05:58:50.723Z,15.44
2023-05-07T06:01:19.935Z,17.05
2023-05-07T06:03:48.181Z,17.29
2023-05-07T06:06:16.809Z,17.29
2023-05-07T06:08:44.940Z,17.51
2023-05-07T06:11:13.142Z,17.69
2023-05-07T06:13:42.949Z,17.38
2023-05-07T06:16:11.093Z,17.82
2023-05-07T06:18:39.275Z,17.98
2023-05-07T06:21:07.491Z,18.04
2023-05-07T06:23:36.209Z,18.26
2023-05-07T06:26:04.486Z,18.42
2023-05-07T06:28:36.913Z,18.53
2023-05-07T06:31:18.172Z,18.57
2023-05-07T06:33:47.152Z,18.75
2023-05-07T06:36:15.509Z,18.82
2023-05-07T06:38:43.899Z,18.69
2023-05-07T06:41:12.097Z,19.06
2023-05-07T06:43:40.567Z,19.22
2023-05-07T06:46:08.867Z,19.24
2023-05-07T06:48:38.469Z,19.12
2023-05-07T06:51:07.095Z,19.33
2023-05-07T06:53:35.944Z,19.47
2023-05-07T06:56:04.098Z,19.63
2023-05-07T06:58:32.636Z,18.96
2023-05-07T07:01:00.959Z,19.34
2023-05-07T07:03:29.389Z,19.57
2023-05-07T07:06:00.360Z,19.62
2023-05-07T07:08:28.638Z,19.58
2023-05-07T07:10:56.937Z,19.44
2023-05-07T07:13:25.144Z,19.09
2023-05-07T07:15:54.123Z,19.69
2023-05-07T07:18:22.637Z,19.76
2023-05-07T07:20:51.276Z,19.58
2023-05-07T07:23:20.960Z,19.63
2023-05-07T07:25:49.524Z,19.84
2023-05-07T07:28:20.298Z,20.01
2023-05-07T07:30:48.985Z,20.00
2023-05-07T07:33:17.482Z,20.24
2023-05-07T07:35:45.880Z,20.25
2023-05-07T07:38:14.082Z,20.40
2023-05-07T07:40:45.074Z,20.64
2023-05-07T07:43:13.273Z,20.92
2023-05-07T07:45:41.912Z,21.07
2023-05-07T07:48:10.254Z,21.07
2023-05-07T07:50:45.190Z,21.02
2023-05-07T07:53:14.265Z,21.00
2023-05-07T07:55:43.937Z,20.96
2023-05-07T07:58:12.331Z,20.87
2023-05-07T08:00:40.486Z,20.86
2023-05-07T08:03:11.348Z,20.82
2023-05-07T08:05:40.236Z,20.34
2023-05-07T08:08:08.372Z,21.06
2023-05-07T08:10:39.400Z,21.17
2023-05-07T08:13:09.393Z,21.37
2023-05-07T08:15:37.868Z,21.14
2023-05-07T08:18:06.229Z,21.39
2023-05-07T08:20:34.817Z,21.33
2023-05-07T08:23:02.979Z,21.20
2023-05-07T08:25:31.182Z,21.23
2023-05-07T08:27:59.475Z,21.16
2023-05-07T08:30:29.295Z,21.10
2023-05-07T08:32:57.460Z,20.97
2023-05-07T08:35:26.835Z,21.04
2023-05-07T08:37:55.214Z,21.38
2023-05-07T08:40:26.641Z,21.52
2023-05-07T08:42:55.259Z,21.66
2023-05-07T08:45:23.347Z,21.38
2023-05-07T08:47:57.091Z,21.52
2023-05-07T08:50:25.309Z,21.60
2023-05-07T08:52:53.735Z,21.73
2023-05-07T08:55:22.819Z,21.75
2023-05-07T08:57:51.149Z,21.75
2023-05-07T09:00:19.757Z,21.67
2023-05-07T09:02:48.350Z,21.72
2023-05-07T09:05:18.202Z,21.69
2023-05-07T09:07:47.000Z,21.89
2023-05-07T09:10:15.542Z,21.91
2023-05-07T09:12:43.775Z,21.77
2023-05-07T09:15:13.303Z,21.83
2023-05-07T09:17:42.404Z,21.78
2023-05-07T09:20:11.371Z,21.83
2023-05-07T09:22:41.424Z,21.87
2023-05-07T09:25:11.067Z,22.22
2023-05-07T09:27:39.810Z,22.35
2023-05-07T09:30:09.560Z,22.58
2023-05-07T09:32:40.247Z,21.14
2023-05-07T09:35:16.628Z,22.25
2023-05-07T09:37:46.337Z,22.94
2023-05-07T09:40:23.491Z,23.07
2023-05-07T09:42:52.001Z,23.08
2023-05-07T09:45:24.844Z,23.20
2023-05-07T09:47:57.078Z,22.76
2023-05-07T09:50:29.917Z,23.33
2023-05-07T09:52:59.914Z,23.32
2023-05-07T09:55:28.906Z,23.55
2023-05-07T09:57:57.845Z,23.78
2023-05-07T10:00:27.987Z,23.87
2023-05-07T10:02:59.843Z,24.01
2023-05-07T10:05:29.774Z,23.99
2023-05-07T10:08:00.940Z,23.78
2023-05-07T10:10:31.497Z,23.91
2023-05-07T10:13:00.003Z,23.71
2023-05-07T10:15:28.938Z,23.67
2023-05-07T10:17:58.008Z,23.68
2023-05-07T10:20:27.952Z,23.62
2023-05-07T10:23:00.888Z,23.55
2023-05-07T10:25:32.497Z,23.36
2023-05-07T10:28:05.701Z,23.36
2023-05-07T10:30:42.547Z,23.14
2023-05-07T10:33:14.201Z,23.17
2023-05-07T10:35:45.158Z,23.15
2023-05-07T10:38:15.191Z,23.00
2023-05-07T10:40:43.432Z,22.95
2023-05-07T10:43:11.747Z,23.11
2023-05-07T10:45:40.007Z,23.19
2023-05-07T10:48:25.013Z,23.22
2023-05-07T10:51:21.382Z,23.37
2023-05-07T10:53:51.056Z,23.51
2023-05-07T10:56:32.045Z,23.13
2023-05-07T10:59:35.143Z,23.81
2023-05-07T11:02:05.528Z,24.02
2023-05-07T11:04:36.240Z,24.09
2023-05-07T11:07:30.208Z,24.34
2023-05-07T11:10:07.569Z,24.46
2023-05-07T11:12:57.508Z,24.66
2023-05-07T11:15:37.790Z,24.94
2023-05-07T11:18:06.271Z,25.13
2023-05-07T11:20:52.445Z,25.14
2023-05-07T11:23:53.515Z,24.98
2023-05-07T11:26:24.210Z,24.80
2023-05-07T11:28:53.496Z,24.71
2023-05-07T11:31:27.317Z,24.52
2023-05-07T11:33:56.169Z,24.51
2023-05-07T11:36:28.047Z,24.43
2023-05-07T11:38:57.159Z,24.61
2023-05-07T11:41:36.238Z,24.54
2023-05-07T11:44:04.448Z,24.38
2023-05-07T11:46:32.787Z,24.44
2023-05-07T11:49:02.861Z,24.42
2023-05-07T11:51:31.180Z,24.44
2023-05-07T11:53:59.284Z,24.44
2023-05-07T11:56:28.817Z,24.31
2023-05-07T11:58:56.967Z,24.48
2023-05-07T12:01:25.137Z,24.66
2023-05-07T12:03:53.445Z,24.91
2023-05-07T12:06:21.729Z,24.93
2023-05-07T12:08:50.005Z,24.90
2023-05-07T12:11:19.722Z,24.24
2023-05-07T12:13:49.364Z,24.79
2023-05-07T12:16:18.207Z,24.65
2023-05-07T12:18:47.286Z,24.56
2023-05-07T12:21:16.031Z,24.41
2023-05-07T12:23:44.294Z,24.27
2023-05-07T12:26:12.533Z,24.08
2023-05-07T12:28:41.255Z,24.18
2023-05-07T12:31:11.633Z,24.13
2023-05-07T12:33:39.961Z,24.04
2023-05-07T12:36:09.843Z,23.80
2023-05-07T12:38:39.694Z,23.81
2023-05-07T12:41:09.370Z,23.81
2023-05-07T12:43:37.819Z,23.76
2023-05-07T12:46:07.549Z,23.58
2023-05-07T12:48:39.097Z,22.92
2023-05-07T12:51:08.786Z,23.16
2023-05-07T12:53:43.366Z,22.93
2023-05-07T12:56:11.764Z,22.89
2023-05-07T12:58:39.986Z,22.60
2023-05-07T13:01:11.169Z,22.66
2023-05-07T13:03:41.231Z,22.59
2023-05-07T13:06:13.286Z,22.33
2023-05-07T13:08:44.226Z,22.28
2023-05-07T13:11:13.112Z,22.18
2023-05-07T13:13:43.194Z,22.09
2023-05-07T13:16:12.936Z,21.71
2023-05-07T13:18:45.029Z,20.04
2023-05-07T13:21:14.410Z,20.00
2023-05-07T13:23:42.805Z,19.52
2023-05-07T13:26:24.994Z,19.21
2023-05-07T13:28:54.692Z,19.03
2023-05-07T13:31:23.248Z,18.80
2023-05-07T13:33:53.967Z,18.54
2023-05-07T13:36:22.271Z,18.36
2023-05-07T13:38:50.458Z,17.84
2023-05-07T13:41:18.635Z,17.58
2023-05-07T13:43:46.869Z,17.41
2023-05-07T13:46:15.063Z,17.30
2023-05-07T13:48:43.208Z,17.24
2023-05-07T13:51:12.832Z,17.28
2023-05-07T13:53:41.054Z,17.24
2023-05-07T13:56:09.290Z,17.23
2023-05-07T13:58:42.216Z,17.17
2023-05-07T14:01:13.499Z,17.20
2023-05-07T14:03:41.814Z,17.24
2023-05-07T14:06:10.220Z,17.36
2023-05-07T14:08:39.825Z,17.08
2023-05-07T14:11:08.173Z,17.36
2023-05-07T14:13:36.649Z,17.36
2023-05-07T14:16:07.600Z,17.37
2023-05-07T14:18:39.233Z,16.88
2023-05-07T14:21:08.670Z,17.54
2023-05-07T14:23:37.134Z,17.62
2023-05-07T14:26:06.966Z,17.63
2023-05-07T14:28:35.137Z,17.70
2023-05-07T14:31:03.533Z,17.67
2023-05-07T14:33:31.697Z,17.76
2023-05-07T14:36:04.029Z,17.66
2023-05-07T14:38:34.054Z,17.75
2023-05-07T14:41:02.496Z,17.71
2023-05-07T14:43:32.665Z,17.12
2023-05-07T14:46:01.359Z,17.62
2023-05-07T14:48:29.561Z,17.79
2023-05-07T14:50:58.250Z,17.71
2023-05-07T14:53:26.923Z,17.75
2023-05-07T14:55:55.766Z,17.91
2023-05-07T14:58:23.906Z,17.91
2023-05-07T15:00:53.698Z,17.91
2023-05-07T15:03:23.472Z,17.87
2023-05-07T15:05:52.972Z,17.77
2023-05-07T15:08:21.404Z,17.93
2023-05-07T15:10:53.028Z,18.02
2023-05-07T15:13:21.634Z,18.22
2023-05-07T15:15:50.905Z,18.42
2023-05-07T15:18:22.641Z,18.63
2023-05-07T15:20:51.836Z,18.80
2023-05-07T15:23:20.056Z,18.92
2023-05-07T15:25:50.295Z,18.99
2023-05-07T15:28:20.822Z,19.14
2023-05-07T15:30:49.133Z,19.22
2023-05-07T15:33:17.262Z,19.34
2023-05-07T15:35:46.865Z,19.51
2023-05-07T15:38:15.195Z,19.54
2023-05-07T15:40:43.542Z,19.58
2023-05-07T15:43:12.408Z,19.60
2023-05-07T15:45:42.338Z,19.63
2023-05-07T15:48:11.213Z,19.63
2023-05-07T15:50:40.089Z,19.64
2023-05-07T15:53:26.096Z,19.47
2023-05-07T15:55:54.538Z,19.63
2023-05-07T15:58:22.716Z,19.56
2023-05-07T16:00:51.288Z,19.51
2023-05-07T16:03:20.003Z,19.37
2023-05-07T16:05:48.189Z,19.34
2023-05-07T16:08:16.418Z,19.24
2023-05-07T16:10:46.099Z,19.18
2023-05-07T16:13:14.314Z,19.14
2023-05-07T16:15:42.532Z,18.99
2023-05-07T16:18:10.831Z,18.88
2023-05-07T16:20:39.228Z,18.76
2023-05-07T16:23:07.378Z,18.58
2023-05-07T16:25:35.525Z,18.35
2023-05-07T16:28:05.218Z,18.39
2023-05-07T16:30:33.412Z,18.12
2023-05-07T16:33:01.593Z,18.02
2023-05-07T16:35:29.912Z,17.82
2023-05-07T16:37:58.107Z,17.68
2023-05-07T16:40:26.568Z,17.58
2023-05-07T16:42:55.604Z,17.57
2023-05-07T16:45:25.227Z,17.66
2023-05-07T16:47:53.400Z,17.66
2023-05-07T16:50:21.663Z,17.56
2023-05-07T16:52:50.225Z,17.33
2023-05-07T16:55:18.606Z,17.12
2023-05-07T16:57:46.771Z,17.29
2023-05-07T17:00:16.912Z,17.21
2023-05-07T17:02:47.168Z,17.06
2023-05-07T17:05:15.793Z,17.01
2023-05-07T17:07:44.138Z,16.96
2023-05-07T17:10:12.510Z,17.16
2023-05-07T17:12:41.103Z,17.20
2023-05-07T17:15:11.017Z,17.33
2023-05-07T17:17:39.455Z,17.22
2023-05-07T17:20:10.494Z,17.23
2023-05-07T17:22:38.734Z,17.00
2023-05-07T17:25:07.443Z,17.12
2023-05-07T17:27:35.732Z,17.07
2023-05-07T17:30:03.865Z,16.93
2023-05-07T17:32:34.941Z,16.95
2023-05-07T17:35:03.523Z,15.31
2023-05-07T17:37:33.214Z,17.02
2023-05-07T17:40:02.241Z,16.87
2023-05-07T17:42:32.129Z,17.20
2023-05-07T17:45:00.250Z,17.10
2023-05-07T17:47:28.439Z,17.07
2023-05-07T17:49:56.657Z,16.98
2023-05-07T17:56:36.854Z,16.96
2023-05-07T17:59:05.388Z,16.81
2023-05-07T18:01:34.347Z,16.99
2023-05-07T18:04:03.433Z,17.11
2023-05-07T18:06:32.298Z,17.17
2023-05-07T18:09:00.641Z,16.95
2023-05-07T18:11:32.704Z,16.80
2023-05-07T18:14:03.006Z,16.36
2023-05-07T18:16:31.481Z,16.53
2023-05-07T18:18:59.716Z,16.52
2023-05-07T18:21:28.553Z,16.19
2023-05-07T18:23:57.210Z,16.64
2023-05-07T18:26:26.156Z,16.14
2023-05-07T18:28:54.404Z,16.57
2023-05-07T18:31:24.640Z,16.68
2023-05-07T18:33:56.052Z,16.66
2023-05-07T18:36:27.069Z,16.77
2023-05-07T18:39:01.550Z,16.68
2023-05-07T18:41:29.851Z,16.67
2023-05-07T18:43:58.195Z,16.60
2023-05-07T18:46:29.739Z,16.12
2023-05-07T18:48:58.425Z,16.68
2023-05-07T18:51:28.785Z,16.63
2023-05-07T18:53:58.188Z,16.60
2023-05-07T18:56:26.415Z,16.52
2023-05-07T18:58:54.653Z,16.45
2023-05-07T19:01:23.251Z,16.44
2023-05-07T19:03:53.215Z,16.71
2023-05-07T19:06:22.375Z,16.75
2023-05-07T19:08:50.522Z,16.80
2023-05-07T19:11:18.821Z,16.65
2023-05-07T19:13:47.009Z,16.53
2023-05-07T19:16:15.394Z,16.63
2023-05-07T19:18:43.974Z,16.58
2023-05-07T19:21:14.595Z,16.53
2023-05-07T19:23:43.370Z,16.36
2023-05-07T19:26:13.920Z,16.30
2023-05-07T19:28:45.435Z,16.43
2023-05-07T19:31:20.929Z,16.52
2023-05-07T19:33:49.727Z,16.41
2023-05-07T19:36:20.040Z,16.36
2023-05-07T19:38:50.203Z,16.24
2023-05-07T19:41:18.351Z,16.60
2023-05-07T19:43:46.510Z,16.61
2023-05-07T19:46:16.720Z,16.57
2023-05-07T19:48:45.764Z,16.64
2023-05-07T19:51:14.826Z,16.65
2023-05-07T19:53:45.133Z,16.66
2023-05-07T19:56:13.794Z,16.57
2023-05-07T19:58:41.954Z,16.53
2023-05-07T20:01:10.328Z,16.53
2023-05-07T20:03:38.735Z,16.39
2023-05-07T20:06:07.031Z,16.25
2023-05-07T20:08:35.206Z,16.21
2023-05-07T20:11:05.760Z,16.16
2023-05-07T20:13:34.058Z,16.17
2023-05-07T20:16:04.511Z,16.17
2023-05-07T20:18:32.773Z,16.24
2023-05-07T20:21:05.668Z,15.95
2023-05-07T20:23:34.325Z,16.14
2023-05-07T20:26:02.648Z,16.16
2023-05-07T20:28:32.345Z,16.15
2023-05-07T20:31:00.529Z,16.12
2023-05-07T20:33:28.718Z,16.17
2023-05-07T20:35:59.184Z,16.18
2023-05-07T20:38:28.645Z,16.22
2023-05-07T20:40:56.905Z,16.24
2023-05-07T20:43:25.113Z,16.17
2023-05-07T20:46:02.526Z,16.26
2023-05-07T20:48:32.197Z,16.18
2023-05-07T20:51:01.294Z,16.14
2023-05-07T20:53:30.515Z,16.25
2023-05-07T20:55:59.039Z,16.20
2023-05-07T20:58:29.126Z,16.05
2023-05-07T21:00:58.370Z,16.18
2023-05-07T21:03:28.039Z,16.05
2023-05-07T21:05:57.922Z,16.17
2023-05-07T21:08:30.993Z,16.27
2023-05-07T21:10:59.354Z,16.16
2023-05-07T21:13:27.710Z,16.26
2023-05-07T21:15:56.075Z,16.24
2023-05-07T21:18:26.855Z,16.18
2023-05-07T21:20:57.399Z,16.14
2023-05-07T21:23:25.683Z,16.16
2023-05-07T21:25:53.986Z,16.08
2023-05-07T21:28:22.296Z,16.18
2023-05-07T21:30:50.689Z,16.13
2023-05-07T21:33:18.878Z,16.23
2023-05-07T21:35:47.140Z,16.08
2023-05-07T21:38:18.033Z,16.08
2023-05-07T21:40:46.524Z,16.00
2023-05-07T21:43:14.761Z,15.98
2023-05-07T21:45:43.151Z,15.96
2023-05-07T21:48:11.326Z,15.82
2023-05-07T21:50:39.508Z,15.89
2023-05-07T21:53:07.835Z,15.95
2023-05-07T21:55:37.514Z,15.89
2023-05-07T21:58:06.375Z,15.91
2023-05-07T22:00:34.909Z,15.84
2023-05-07T22:03:03.229Z,15.95
2023-05-07T22:05:32.253Z,15.98
2023-05-07T22:08:00.519Z,16.01
2023-05-07T22:10:28.762Z,16.09
2023-05-07T22:12:58.433Z,16.05
2023-05-07T22:15:26.658Z,16.08
2023-05-07T22:17:54.819Z,16.06
2023-05-07T22:20:23.051Z,16.08
2023-05-07T22:22:52.997Z,16.09
2023-05-07T22:25:21.981Z,15.99
2023-05-07T22:27:50.798Z,15.88
2023-05-07T22:30:20.495Z,15.08
2023-05-07T22:32:48.907Z,15.81
2023-05-07T22:35:17.128Z,15.75
2023-05-07T22:37:45.275Z,15.82
2023-05-07T22:40:13.895Z,15.79
2023-05-07T22:42:42.349Z,15.88
2023-05-07T22:45:11.653Z,15.71
2023-05-07T22:47:41.396Z,15.94
2023-05-07T22:50:10.552Z,15.93
2023-05-07T22:52:39.000Z,15.30
2023-05-07T22:55:08.329Z,15.86
2023-05-07T22:57:36.490Z,15.78
2023-05-07T23:00:05.195Z,15.71
2023-05-07T23:02:33.605Z,15.66
2023-05-07T23:05:03.376Z,15.61
2023-05-07T23:07:31.620Z,15.60
2023-05-07T23:09:59.790Z,15.62
2023-05-07T23:12:28.039Z,15.63
2023-05-07T23:14:56.238Z,15.54
2023-05-07T23:17:24.565Z,15.48
2023-05-07T23:19:52.829Z,15.44
2023-05-07T23:22:22.402Z,15.47
2023-05-07T23:24:50.574Z,15.17
2023-05-07T23:27:18.795Z,15.43
2023-05-07T23:29:47.569Z,15.41
2023-05-07T23:32:15.749Z,15.37
2023-05-07T23:34:43.908Z,15.36
2023-05-07T23:37:12.086Z,15.34
2023-05-07T23:39:41.618Z,15.27
2023-05-07T23:42:10.276Z,15.32
2023-05-07T23:44:38.565Z,15.22
2023-05-07T23:47:06.805Z,15.35
2023-05-07T23:49:34.956Z,15.27
2023-05-07T23:52:03.172Z,15.34
2023-05-07T23:54:31.401Z,15.21
2023-05-07T23:57:01.079Z,15.28
2023-05-07T23:59:29.632Z,15.29
